sensor_id;sensor_type;location;lat;lon;timestamp;P1;durP1;ratioP1;P2;durP2;ratioP2
18973;SDS011;9621;48.690;9.466;2023-10-19T00:00:48;23.00;;;17.73;;
18973;SDS011;9621;48.690;9.466;2023-10-19T00:03:16;23.42;;;18.00;;
18973;SDS011;9621;48.690;9.466;2023-10-19T00:05:44;24.33;;;17.45;;
18973;SDS011;9621;48.690;9.466;2023-10-19T00:08:12;24.48;;;18.30;;
18973;SDS011;9621;48.690;9.466;2023-10-19T00:10:42;26.63;;;18.00;;
18973;SDS011;9621;48.690;9.466;2023-10-19T00:13:14;26.23;;;17.83;;
18973;SDS011;9621;48.690;9.466;2023-10-19T00:15:42;23.35;;;17.75;;
18973;SDS011;9621;48.690;9.466;2023-10-19T00:18:13;25.85;;;18.10;;
18973;SDS011;9621;48.690;9.466;2023-10-19T00:20:48;22.98;;;16.88;;
18973;SDS011;9621;48.690;9.466;2023-10-19T00:23:19;23.45;;;16.65;;
18973;SDS011;9621;48.690;9.466;2023-10-19T00:25:57;24.30;;;17.30;;
18973;SDS011;9621;48.690;9.466;2023-10-19T00:28:26;23.00;;;17.33;;
18973;SDS011;9621;48.690;9.466;2023-10-19T00:30:53;24.45;;;16.90;;
18973;SDS011;9621;48.690;9.466;2023-10-19T00:33:25;28.50;;;18.85;;
18973;SDS011;9621;48.690;9.466;2023-10-19T00:35:53;21.35;;;16.67;;
18973;SDS011;9621;48.690;9.466;2023-10-19T00:38:25;24.77;;;17.77;;
18973;SDS011;9621;48.690;9.466;2023-10-19T00:41:09;25.98;;;17.30;;
18973;SDS011;9621;48.690;9.466;2023-10-19T00:43:46;22.27;;;16.63;;
18973;SDS011;9621;48.690;9.466;2023-10-19T00:46:22;25.30;;;17.33;;
18973;SDS011;9621;48.690;9.466;2023-10-19T00:48:57;24.10;;;17.73;;
18973;SDS011;9621;48.690;9.466;2023-10-19T00:51:31;23.05;;;16.75;;
18973;SDS011;9621;48.690;9.466;2023-10-19T00:54:08;24.33;;;18.05;;
18973;SDS011;9621;48.690;9.466;2023-10-19T00:56:39;24.77;;;17.33;;
18973;SDS011;9621;48.690;9.466;2023-10-19T00:59:12;22.52;;;17.67;;
18973;SDS011;9621;48.690;9.466;2023-10-19T01:01:44;24.10;;;17.85;;
18973;SDS011;9621;48.690;9.466;2023-10-19T01:04:13;26.15;;;18.48;;
18973;SDS011;9621;48.690;9.466;2023-10-19T01:06:45;21.83;;;17.08;;
18973;SDS011;9621;48.690;9.466;2023-10-19T01:09:25;26.15;;;18.50;;
18973;SDS011;9621;48.690;9.466;2023-10-19T01:11:53;30.63;;;17.90;;
18973;SDS011;9621;48.690;9.466;2023-10-19T01:14:28;23.40;;;17.58;;
18973;SDS011;9621;48.690;9.466;2023-10-19T01:16:57;22.42;;;16.85;;
18973;SDS011;9621;48.690;9.466;2023-10-19T01:19:25;25.67;;;17.27;;
18973;SDS011;9621;48.690;9.466;2023-10-19T01:21:53;25.08;;;17.73;;
18973;SDS011;9621;48.690;9.466;2023-10-19T01:24:27;24.70;;;16.92;;
18973;SDS011;9621;48.690;9.466;2023-10-19T01:27:05;22.30;;;16.73;;
18973;SDS011;9621;48.690;9.466;2023-10-19T01:29:33;24.27;;;17.20;;
18973;SDS011;9621;48.690;9.466;2023-10-19T01:32:03;27.17;;;18.38;;
18973;SDS011;9621;48.690;9.466;2023-10-19T01:34:33;29.80;;;19.15;;
18973;SDS011;9621;48.690;9.466;2023-10-19T01:37:01;26.20;;;18.42;;
18973;SDS011;9621;48.690;9.466;2023-10-19T01:39:31;29.25;;;19.48;;
18973;SDS011;9621;48.690;9.466;2023-10-19T01:42:00;23.27;;;18.00;;
18973;SDS011;9621;48.690;9.466;2023-10-19T01:44:26;21.77;;;17.38;;
18973;SDS011;9621;48.690;9.466;2023-10-19T01:46:53;24.95;;;17.13;;
18973;SDS011;9621;48.690;9.466;2023-10-19T01:49:20;23.90;;;18.30;;
18973;SDS011;9621;48.690;9.466;2023-10-19T01:51:52;26.33;;;18.63;;
18973;SDS011;9621;48.690;9.466;2023-10-19T01:54:19;23.42;;;18.38;;
18973;SDS011;9621;48.690;9.466;2023-10-19T01:56:52;23.63;;;17.83;;
18973;SDS011;9621;48.690;9.466;2023-10-19T01:59:21;26.40;;;17.98;;
18973;SDS011;9621;48.690;9.466;2023-10-19T02:01:52;22.02;;;17.15;;
18973;SDS011;9621;48.690;9.466;2023-10-19T02:04:20;21.88;;;17.15;;
18973;SDS011;9621;48.690;9.466;2023-10-19T02:06:47;26.75;;;18.30;;
18973;SDS011;9621;48.690;9.466;2023-10-19T02:09:15;25.58;;;18.25;;
18973;SDS011;9621;48.690;9.466;2023-10-19T02:11:49;24.65;;;18.38;;
18973;SDS011;9621;48.690;9.466;2023-10-19T02:14:19;25.73;;;18.83;;
18973;SDS011;9621;48.690;9.466;2023-10-19T02:16:46;25.08;;;18.95;;
18973;SDS011;9621;48.690;9.466;2023-10-19T02:19:16;21.75;;;16.63;;
18973;SDS011;9621;48.690;9.466;2023-10-19T02:21:44;22.50;;;17.20;;
18973;SDS011;9621;48.690;9.466;2023-10-19T02:24:13;24.48;;;18.33;;
18973;SDS011;9621;48.690;9.466;2023-10-19T02:26:39;22.35;;;17.42;;
18973;SDS011;9621;48.690;9.466;2023-10-19T02:29:08;23.45;;;16.35;;
18973;SDS011;9621;48.690;9.466;2023-10-19T02:31:36;27.08;;;18.75;;
18973;SDS011;9621;48.690;9.466;2023-10-19T02:34:05;23.40;;;17.48;;
18973;SDS011;9621;48.690;9.466;2023-10-19T02:36:32;24.60;;;16.70;;
18973;SDS011;9621;48.690;9.466;2023-10-19T02:39:02;22.10;;;17.55;;
18973;SDS011;9621;48.690;9.466;2023-10-19T02:41:32;24.45;;;17.92;;
18973;SDS011;9621;48.690;9.466;2023-10-19T02:44:01;22.38;;;16.63;;
18973;SDS011;9621;48.690;9.466;2023-10-19T02:46:32;21.83;;;15.88;;
18973;SDS011;9621;48.690;9.466;2023-10-19T02:49:02;20.67;;;16.10;;
18973;SDS011;9621;48.690;9.466;2023-10-19T02:51:29;24.73;;;16.35;;
18973;SDS011;9621;48.690;9.466;2023-10-19T02:53:57;20.98;;;15.57;;
18973;SDS011;9621;48.690;9.466;2023-10-19T02:56:25;20.52;;;16.20;;
18973;SDS011;9621;48.690;9.466;2023-10-19T02:58:55;21.42;;;16.08;;
18973;SDS011;9621;48.690;9.466;2023-10-19T03:01:27;23.85;;;16.23;;
18973;SDS011;9621;48.690;9.466;2023-10-19T03:03:56;21.30;;;16.05;;
18973;SDS011;9621;48.690;9.466;2023-10-19T03:06:26;22.92;;;16.52;;
18973;SDS011;9621;48.690;9.466;2023-10-19T03:08:56;19.73;;;16.00;;
18973;SDS011;9621;48.690;9.466;2023-10-19T03:11:23;18.90;;;14.98;;
18973;SDS011;9621;48.690;9.466;2023-10-19T03:13:50;19.70;;;15.77;;
18973;SDS011;9621;48.690;9.466;2023-10-19T03:16:15;21.73;;;16.30;;
18973;SDS011;9621;48.690;9.466;2023-10-19T03:18:44;18.60;;;14.45;;
18973;SDS011;9621;48.690;9.466;2023-10-19T03:21:10;20.27;;;15.25;;
18973;SDS011;9621;48.690;9.466;2023-10-19T03:23:38;18.02;;;14.85;;
18973;SDS011;9621;48.690;9.466;2023-10-19T03:26:06;19.52;;;14.45;;
18973;SDS011;9621;48.690;9.466;2023-10-19T03:28:49;19.88;;;14.70;;
18973;SDS011;9621;48.690;9.466;2023-10-19T03:31:20;17.67;;;14.10;;
18973;SDS011;9621;48.690;9.466;2023-10-19T03:33:48;18.97;;;14.67;;
18973;SDS011;9621;48.690;9.466;2023-10-19T03:36:18;19.60;;;14.63;;
18973;SDS011;9621;48.690;9.466;2023-10-19T03:38:48;22.17;;;15.80;;
18973;SDS011;9621;48.690;9.466;2023-10-19T03:41:16;19.27;;;14.70;;
18973;SDS011;9621;48.690;9.466;2023-10-19T03:43:46;19.83;;;14.38;;
18973;SDS011;9621;48.690;9.466;2023-10-19T03:46:14;19.80;;;15.10;;
18973;SDS011;9621;48.690;9.466;2023-10-19T03:48:48;21.20;;;15.07;;
18973;SDS011;9621;48.690;9.466;2023-10-19T03:51:15;22.58;;;16.45;;
18973;SDS011;9621;48.690;9.466;2023-10-19T03:53:42;22.03;;;16.50;;
18973;SDS011;9621;48.690;9.466;2023-10-19T03:56:15;18.67;;;15.10;;
18973;SDS011;9621;48.690;9.466;2023-10-19T03:58:43;21.00;;;15.23;;
18973;SDS011;9621;48.690;9.466;2023-10-19T04:01:13;26.00;;;14.30;;
18973;SDS011;9621;48.690;9.466;2023-10-19T04:03:41;20.93;;;14.80;;
18973;SDS011;9621;48.690;9.466;2023-10-19T04:06:08;21.63;;;15.60;;
18973;SDS011;9621;48.690;9.466;2023-10-19T04:08:39;22.37;;;16.17;;
18973;SDS011;9621;48.690;9.466;2023-10-19T04:11:07;81.83;;;17.07;;
18973;SDS011;9621;48.690;9.466;2023-10-19T04:13:38;21.80;;;15.00;;
18973;SDS011;9621;48.690;9.466;2023-10-19T04:16:04;20.33;;;15.43;;
18973;SDS011;9621;48.690;9.466;2023-10-19T04:18:35;22.57;;;15.77;;
18973;SDS011;9621;48.690;9.466;2023-10-19T04:21:08;19.20;;;15.73;;
18973;SDS011;9621;48.690;9.466;2023-10-19T04:23:35;19.13;;;14.73;;
18973;SDS011;9621;48.690;9.466;2023-10-19T04:26:02;21.77;;;15.90;;
18973;SDS011;9621;48.690;9.466;2023-10-19T04:28:40;21.67;;;15.40;;
18973;SDS011;9621;48.690;9.466;2023-10-19T04:31:14;29.23;;;16.10;;
18973;SDS011;9621;48.690;9.466;2023-10-19T04:33:41;19.67;;;14.93;;
18973;SDS011;9621;48.690;9.466;2023-10-19T04:36:11;21.70;;;14.13;;
18973;SDS011;9621;48.690;9.466;2023-10-19T04:38:39;19.43;;;15.13;;
18973;SDS011;9621;48.690;9.466;2023-10-19T04:41:06;19.83;;;15.40;;
18973;SDS011;9621;48.690;9.466;2023-10-19T04:43:33;21.67;;;14.87;;
18973;SDS011;9621;48.690;9.466;2023-10-19T04:46:06;19.70;;;13.93;;
18973;SDS011;9621;48.690;9.466;2023-10-19T04:48:36;23.93;;;13.77;;
18973;SDS011;9621;48.690;9.466;2023-10-19T04:51:04;18.97;;;14.33;;
18973;SDS011;9621;48.690;9.466;2023-10-19T04:53:32;16.60;;;13.07;;
18973;SDS011;9621;48.690;9.466;2023-10-19T04:55:59;19.20;;;14.37;;
18973;SDS011;9621;48.690;9.466;2023-10-19T04:58:26;19.13;;;14.57;;
18973;SDS011;9621;48.690;9.466;2023-10-19T05:00:54;28.70;;;16.60;;
18973;SDS011;9621;48.690;9.466;2023-10-19T05:03:24;19.40;;;14.63;;
18973;SDS011;9621;48.690;9.466;2023-10-19T05:05:53;20.67;;;14.37;;
18973;SDS011;9621;48.690;9.466;2023-10-19T05:08:21;21.80;;;14.57;;
18973;SDS011;9621;48.690;9.466;2023-10-19T05:10:50;18.97;;;14.63;;
18973;SDS011;9621;48.690;9.466;2023-10-19T05:13:18;19.93;;;15.47;;
18973;SDS011;9621;48.690;9.466;2023-10-19T05:15:45;20.47;;;14.73;;
18973;SDS011;9621;48.690;9.466;2023-10-19T05:18:12;22.20;;;15.37;;
18973;SDS011;9621;48.690;9.466;2023-10-19T05:20:40;18.17;;;13.80;;
18973;SDS011;9621;48.690;9.466;2023-10-19T05:23:08;19.77;;;13.23;;
18973;SDS011;9621;48.690;9.466;2023-10-19T05:25:35;18.37;;;13.33;;
18973;SDS011;9621;48.690;9.466;2023-10-19T05:28:03;16.40;;;13.57;;
18973;SDS011;9621;48.690;9.466;2023-10-19T05:30:30;17.17;;;13.73;;
18973;SDS011;9621;48.690;9.466;2023-10-19T05:32:58;21.50;;;13.97;;
18973;SDS011;9621;48.690;9.466;2023-10-19T05:35:26;17.77;;;13.90;;
18973;SDS011;9621;48.690;9.466;2023-10-19T05:37:56;17.50;;;13.20;;
18973;SDS011;9621;48.690;9.466;2023-10-19T05:40:23;21.17;;;14.60;;
18973;SDS011;9621;48.690;9.466;2023-10-19T05:42:54;20.23;;;14.17;;
18973;SDS011;9621;48.690;9.466;2023-10-19T05:45:22;15.57;;;12.97;;
18973;SDS011;9621;48.690;9.466;2023-10-19T05:47:50;17.33;;;13.13;;
18973;SDS011;9621;48.690;9.466;2023-10-19T05:50:16;19.37;;;14.40;;
18973;SDS011;9621;48.690;9.466;2023-10-19T05:52:45;20.33;;;13.77;;
18973;SDS011;9621;48.690;9.466;2023-10-19T05:55:13;19.70;;;16.10;;
18973;SDS011;9621;48.690;9.466;2023-10-19T05:57:41;20.70;;;15.20;;
18973;SDS011;9621;48.690;9.466;2023-10-19T06:00:08;18.10;;;14.47;;
18973;SDS011;9621;48.690;9.466;2023-10-19T06:02:39;18.10;;;13.80;;
18973;SDS011;9621;48.690;9.466;2023-10-19T06:05:08;17.27;;;14.00;;
18973;SDS011;9621;48.690;9.466;2023-10-19T06:07:35;19.67;;;15.23;;
18973;SDS011;9621;48.690;9.466;2023-10-19T06:10:02;18.13;;;13.50;;
18973;SDS011;9621;48.690;9.466;2023-10-19T06:12:33;18.27;;;14.37;;
18973;SDS011;9621;48.690;9.466;2023-10-19T06:15:02;20.07;;;14.03;;
18973;SDS011;9621;48.690;9.466;2023-10-19T06:17:29;18.80;;;14.27;;
18973;SDS011;9621;48.690;9.466;2023-10-19T06:19:56;18.53;;;13.20;;
18973;SDS011;9621;48.690;9.466;2023-10-19T06:22:23;15.87;;;13.13;;
18973;SDS011;9621;48.690;9.466;2023-10-19T06:24:52;21.47;;;15.47;;
18973;SDS011;9621;48.690;9.466;2023-10-19T06:27:19;19.50;;;15.18;;
18973;SDS011;9621;48.690;9.466;2023-10-19T06:29:47;22.47;;;14.60;;
18973;SDS011;9621;48.690;9.466;2023-10-19T06:32:14;18.43;;;13.30;;
18973;SDS011;9621;48.690;9.466;2023-10-19T06:34:42;18.13;;;13.83;;
18973;SDS011;9621;48.690;9.466;2023-10-19T06:37:09;20.98;;;13.85;;
18973;SDS011;9621;48.690;9.466;2023-10-19T06:39:36;22.43;;;13.50;;
18973;SDS011;9621;48.690;9.466;2023-10-19T06:42:06;16.70;;;12.93;;
18973;SDS011;9621;48.690;9.466;2023-10-19T06:44:38;16.53;;;13.23;;
18973;SDS011;9621;48.690;9.466;2023-10-19T06:47:08;16.80;;;12.27;;
18973;SDS011;9621;48.690;9.466;2023-10-19T06:49:35;17.98;;;13.50;;
18973;SDS011;9621;48.690;9.466;2023-10-19T06:52:02;17.73;;;13.85;;
18973;SDS011;9621;48.690;9.466;2023-10-19T06:54:30;22.50;;;14.95;;
18973;SDS011;9621;48.690;9.466;2023-10-19T06:56:58;18.60;;;14.00;;
18973;SDS011;9621;48.690;9.466;2023-10-19T06:59:27;15.93;;;12.67;;
18973;SDS011;9621;48.690;9.466;2023-10-19T07:01:58;20.13;;;13.10;;
18973;SDS011;9621;48.690;9.466;2023-10-19T07:04:27;16.48;;;12.90;;
18973;SDS011;9621;48.690;9.466;2023-10-19T07:06:54;15.23;;;12.03;;
18973;SDS011;9621;48.690;9.466;2023-10-19T07:09:22;16.77;;;12.93;;
18973;SDS011;9621;48.690;9.466;2023-10-19T07:11:49;16.67;;;11.75;;
18973;SDS011;9621;48.690;9.466;2023-10-19T07:14:18;18.02;;;12.35;;
18973;SDS011;9621;48.690;9.466;2023-10-19T07:16:47;18.23;;;13.37;;
18973;SDS011;9621;48.690;9.466;2023-10-19T07:19:14;20.23;;;13.02;;
18973;SDS011;9621;48.690;9.466;2023-10-19T07:21:42;16.40;;;12.85;;
18973;SDS011;9621;48.690;9.466;2023-10-19T07:24:13;16.02;;;13.07;;
18973;SDS011;9621;48.690;9.466;2023-10-19T07:26:43;15.27;;;12.13;;
18973;SDS011;9621;48.690;9.466;2023-10-19T07:29:18;15.70;;;12.93;;
18973;SDS011;9621;48.690;9.466;2023-10-19T07:31:46;17.02;;;13.82;;
18973;SDS011;9621;48.690;9.466;2023-10-19T07:54:21;18.20;;;13.83;;
18973;SDS011;9621;48.690;9.466;2023-10-19T07:56:47;18.20;;;14.63;;
18973;SDS011;9621;48.690;9.466;2023-10-19T07:59:15;19.75;;;15.23;;
18973;SDS011;9621;48.690;9.466;2023-10-19T08:01:42;19.92;;;15.30;;
18973;SDS011;9621;48.690;9.466;2023-10-19T08:04:09;21.88;;;15.98;;
18973;SDS011;9621;48.690;9.466;2023-10-19T08:06:37;23.42;;;16.15;;
18973;SDS011;9621;48.690;9.466;2023-10-19T08:09:04;21.23;;;15.00;;
18973;SDS011;9621;48.690;9.466;2023-10-19T08:11:32;24.42;;;16.35;;
18973;SDS011;9621;48.690;9.466;2023-10-19T08:14:00;23.52;;;15.63;;
18973;SDS011;9621;48.690;9.466;2023-10-19T08:16:27;22.70;;;16.42;;
18973;SDS011;9621;48.690;9.466;2023-10-19T08:18:53;19.92;;;14.95;;
18973;SDS011;9621;48.690;9.466;2023-10-19T08:21:21;19.63;;;15.75;;
18973;SDS011;9621;48.690;9.466;2023-10-19T08:23:48;17.73;;;15.07;;
18973;SDS011;9621;48.690;9.466;2023-10-19T08:26:15;21.77;;;15.82;;
18973;SDS011;9621;48.690;9.466;2023-10-19T08:28:43;20.48;;;15.90;;
18973;SDS011;9621;48.690;9.466;2023-10-19T08:31:10;22.17;;;15.48;;
18973;SDS011;9621;48.690;9.466;2023-10-19T08:33:37;18.70;;;14.02;;
18973;SDS011;9621;48.690;9.466;2023-10-19T08:36:06;20.92;;;14.70;;
18973;SDS011;9621;48.690;9.466;2023-10-19T08:38:42;18.35;;;14.00;;
18973;SDS011;9621;48.690;9.466;2023-10-19T08:41:09;17.88;;;13.98;;
18973;SDS011;9621;48.690;9.466;2023-10-19T08:43:36;19.27;;;14.43;;
18973;SDS011;9621;48.690;9.466;2023-10-19T08:46:06;16.25;;;13.20;;
18973;SDS011;9621;48.690;9.466;2023-10-19T08:48:33;17.20;;;13.10;;
18973;SDS011;9621;48.690;9.466;2023-10-19T08:51:02;18.65;;;13.75;;
18973;SDS011;9621;48.690;9.466;2023-10-19T08:53:33;16.67;;;12.05;;
18973;SDS011;9621;48.690;9.466;2023-10-19T08:56:04;14.45;;;11.60;;
18973;SDS011;9621;48.690;9.466;2023-10-19T08:58:33;15.73;;;12.02;;
18973;SDS011;9621;48.690;9.466;2023-10-19T09:01:01;13.77;;;11.27;;
18973;SDS011;9621;48.690;9.466;2023-10-19T09:03:36;15.85;;;11.27;;
18973;SDS011;9621;48.690;9.466;2023-10-19T09:06:04;14.52;;;11.75;;
18973;SDS011;9621;48.690;9.466;2023-10-19T09:08:31;14.68;;;10.27;;
18973;SDS011;9621;48.690;9.466;2023-10-19T09:11:08;15.55;;;9.85;;
18973;SDS011;9621;48.690;9.466;2023-10-19T09:13:43;12.57;;;9.48;;
18973;SDS011;9621;48.690;9.466;2023-10-19T09:16:12;10.43;;;8.77;;
18973;SDS011;9621;48.690;9.466;2023-10-19T09:18:41;12.02;;;8.70;;
18973;SDS011;9621;48.690;9.466;2023-10-19T09:21:10;11.57;;;8.45;;
18973;SDS011;9621;48.690;9.466;2023-10-19T09:23:38;12.73;;;8.63;;
18973;SDS011;9621;48.690;9.466;2023-10-19T09:26:07;13.02;;;9.60;;
18973;SDS011;9621;48.690;9.466;2023-10-19T09:28:34;10.63;;;8.63;;
18973;SDS011;9621;48.690;9.466;2023-10-19T09:31:02;12.32;;;8.82;;
18973;SDS011;9621;48.690;9.466;2023-10-19T09:33:30;10.25;;;8.20;;
18973;SDS011;9621;48.690;9.466;2023-10-19T09:36:01;10.18;;;8.05;;
18973;SDS011;9621;48.690;9.466;2023-10-19T09:38:29;10.00;;;7.47;;
18973;SDS011;9621;48.690;9.466;2023-10-19T09:40:58;11.93;;;8.70;;
18973;SDS011;9621;48.690;9.466;2023-10-19T09:43:30;12.32;;;8.48;;
18973;SDS011;9621;48.690;9.466;2023-10-19T09:46:01;11.40;;;8.30;;
18973;SDS011;9621;48.690;9.466;2023-10-19T09:48:32;10.07;;;8.32;;
18973;SDS011;9621;48.690;9.466;2023-10-19T09:51:04;10.00;;;8.73;;
18973;SDS011;9621;48.690;9.466;2023-10-19T09:53:34;10.85;;;8.25;;
18973;SDS011;9621;48.690;9.466;2023-10-19T09:56:03;11.95;;;8.15;;
18973;SDS011;9621;48.690;9.466;2023-10-19T09:58:33;16.55;;;8.65;;
18973;SDS011;9621;48.690;9.466;2023-10-19T10:01:03;9.88;;;7.80;;
18973;SDS011;9621;48.690;9.466;2023-10-19T10:03:47;11.75;;;7.70;;
18973;SDS011;9621;48.690;9.466;2023-10-19T10:06:27;12.35;;;8.18;;
18973;SDS011;9621;48.690;9.466;2023-10-19T10:08:55;10.90;;;7.82;;
18973;SDS011;9621;48.690;9.466;2023-10-19T10:11:25;12.63;;;7.95;;
18973;SDS011;9621;48.690;9.466;2023-10-19T10:13:54;9.73;;;7.32;;
18973;SDS011;9621;48.690;9.466;2023-10-19T10:16:22;10.13;;;7.80;;
18973;SDS011;9621;48.690;9.466;2023-10-19T10:18:54;11.95;;;7.82;;
18973;SDS011;9621;48.690;9.466;2023-10-19T10:21:26;10.57;;;7.57;;
18973;SDS011;9621;48.690;9.466;2023-10-19T10:23:54;8.40;;;7.03;;
18973;SDS011;9621;48.690;9.466;2023-10-19T10:26:23;14.00;;;7.72;;
18973;SDS011;9621;48.690;9.466;2023-10-19T10:29:07;9.73;;;7.90;;
18973;SDS011;9621;48.690;9.466;2023-10-19T10:31:40;10.27;;;8.15;;
18973;SDS011;9621;48.690;9.466;2023-10-19T10:34:09;8.73;;;7.80;;
18973;SDS011;9621;48.690;9.466;2023-10-19T10:39:27;10.38;;;7.85;;
18973;SDS011;9621;48.690;9.466;2023-10-19T10:41:55;9.20;;;7.40;;
18973;SDS011;9621;48.690;9.466;2023-10-19T10:44:35;12.02;;;7.57;;
18973;SDS011;9621;48.690;9.466;2023-10-19T10:47:04;12.80;;;8.20;;
18973;SDS011;9621;48.690;9.466;2023-10-19T10:49:33;10.18;;;8.48;;
18973;SDS011;9621;48.690;9.466;2023-10-19T10:52:02;10.60;;;7.78;;
18973;SDS011;9621;48.690;9.466;2023-10-19T10:54:29;9.77;;;7.75;;
18973;SDS011;9621;48.690;9.466;2023-10-19T10:56:55;11.43;;;7.30;;
18973;SDS011;9621;48.690;9.466;2023-10-19T10:59:23;9.38;;;7.78;;
18973;SDS011;9621;48.690;9.466;2023-10-19T11:01:51;12.60;;;7.05;;
18973;SDS011;9621;48.690;9.466;2023-10-19T11:04:18;10.82;;;7.30;;
18973;SDS011;9621;48.690;9.466;2023-10-19T11:06:48;11.27;;;6.80;;
18973;SDS011;9621;48.690;9.466;2023-10-19T11:09:17;10.40;;;7.13;;
18973;SDS011;9621;48.690;9.466;2023-10-19T11:11:44;10.10;;;7.07;;
18973;SDS011;9621;48.690;9.466;2023-10-19T11:14:12;10.68;;;7.15;;
18973;SDS011;9621;48.690;9.466;2023-10-19T11:16:40;9.23;;;6.80;;
18973;SDS011;9621;48.690;9.466;2023-10-19T11:19:08;8.60;;;6.60;;
18973;SDS011;9621;48.690;9.466;2023-10-19T11:21:35;8.65;;;6.60;;
18973;SDS011;9621;48.690;9.466;2023-10-19T11:24:03;8.10;;;5.57;;
18973;SDS011;9621;48.690;9.466;2023-10-19T11:26:37;8.52;;;5.22;;
18973;SDS011;9621;48.690;9.466;2023-10-19T11:29:06;8.38;;;5.80;;
18973;SDS011;9621;48.690;9.466;2023-10-19T11:31:34;7.40;;;5.45;;
18973;SDS011;9621;48.690;9.466;2023-10-19T11:34:04;7.88;;;5.93;;
18973;SDS011;9621;48.690;9.466;2023-10-19T11:36:33;11.38;;;6.43;;
18973;SDS011;9621;48.690;9.466;2023-10-19T11:39:00;10.13;;;6.85;;
18973;SDS011;9621;48.690;9.466;2023-10-19T11:41:29;10.63;;;6.35;;
18973;SDS011;9621;48.690;9.466;2023-10-19T11:43:58;7.53;;;6.60;;
18973;SDS011;9621;48.690;9.466;2023-10-19T11:46:25;9.02;;;7.15;;
18973;SDS011;9621;48.690;9.466;2023-10-19T11:48:52;8.98;;;7.13;;
18973;SDS011;9621;48.690;9.466;2023-10-19T11:51:19;11.05;;;7.20;;
18973;SDS011;9621;48.690;9.466;2023-10-19T11:53:46;8.73;;;7.60;;
18973;SDS011;9621;48.690;9.466;2023-10-19T11:56:13;9.15;;;7.43;;
18973;SDS011;9621;48.690;9.466;2023-10-19T11:58:41;12.50;;;9.00;;
18973;SDS011;9621;48.690;9.466;2023-10-19T12:01:13;18.45;;;8.88;;
18973;SDS011;9621;48.690;9.466;2023-10-19T12:03:41;10.63;;;8.95;;
18973;SDS011;9621;48.690;9.466;2023-10-19T12:06:11;15.38;;;8.70;;
18973;SDS011;9621;48.690;9.466;2023-10-19T12:08:43;11.02;;;8.13;;
18973;SDS011;9621;48.690;9.466;2023-10-19T12:11:10;12.32;;;8.80;;
18973;SDS011;9621;48.690;9.466;2023-10-19T12:13:40;11.52;;;8.18;;
18973;SDS011;9621;48.690;9.466;2023-10-19T12:16:08;10.68;;;8.85;;
18973;SDS011;9621;48.690;9.466;2023-10-19T12:18:39;12.60;;;9.02;;
18973;SDS011;9621;48.690;9.466;2023-10-19T12:21:07;12.57;;;9.13;;
18973;SDS011;9621;48.690;9.466;2023-10-19T12:23:38;10.15;;;8.32;;
18973;SDS011;9621;48.690;9.466;2023-10-19T12:26:05;10.38;;;8.82;;
18973;SDS011;9621;48.690;9.466;2023-10-19T12:28:36;13.43;;;9.35;;
18973;SDS011;9621;48.690;9.466;2023-10-19T12:31:04;12.80;;;9.68;;
18973;SDS011;9621;48.690;9.466;2023-10-19T12:33:33;14.55;;;9.88;;
18973;SDS011;9621;48.690;9.466;2023-10-19T12:36:02;13.68;;;10.00;;
18973;SDS011;9621;48.690;9.466;2023-10-19T12:38:47;12.38;;;10.18;;
18973;SDS011;9621;48.690;9.466;2023-10-19T12:41:14;15.65;;;10.55;;
18973;SDS011;9621;48.690;9.466;2023-10-19T12:43:42;13.18;;;10.50;;
18973;SDS011;9621;48.690;9.466;2023-10-19T12:46:09;14.65;;;9.82;;
18973;SDS011;9621;48.690;9.466;2023-10-19T12:48:37;13.15;;;10.05;;
18973;SDS011;9621;48.690;9.466;2023-10-19T12:51:06;13.98;;;9.27;;
18973;SDS011;9621;48.690;9.466;2023-10-19T12:53:34;9.63;;;7.75;;
18973;SDS011;9621;48.690;9.466;2023-10-19T12:56:02;10.90;;;7.75;;
18973;SDS011;9621;48.690;9.466;2023-10-19T12:58:30;9.93;;;7.55;;
18973;SDS011;9621;48.690;9.466;2023-10-19T13:00:57;9.68;;;7.45;;
18973;SDS011;9621;48.690;9.466;2023-10-19T13:03:24;10.73;;;6.38;;
18973;SDS011;9621;48.690;9.466;2023-10-19T13:05:53;18.60;;;16.40;;
18973;SDS011;9621;48.690;9.466;2023-10-19T13:08:23;13.50;;;12.15;;
18973;SDS011;9621;48.690;9.466;2023-10-19T13:10:52;19.92;;;18.00;;
18973;SDS011;9621;48.690;9.466;2023-10-19T13:13:20;15.88;;;14.05;;
18973;SDS011;9621;48.690;9.466;2023-10-19T13:15:49;9.23;;;8.20;;
18973;SDS011;9621;48.690;9.466;2023-10-19T13:18:16;9.20;;;7.75;;
18973;SDS011;9621;48.690;9.466;2023-10-19T13:20:46;11.38;;;8.55;;
18973;SDS011;9621;48.690;9.466;2023-10-19T13:23:14;13.02;;;9.82;;
18973;SDS011;9621;48.690;9.466;2023-10-19T13:25:43;10.20;;;8.10;;
18973;SDS011;9621;48.690;9.466;2023-10-19T13:28:15;10.48;;;8.15;;
18973;SDS011;9621;48.690;9.466;2023-10-19T13:30:45;11.90;;;7.75;;
18973;SDS011;9621;48.690;9.466;2023-10-19T13:33:13;8.98;;;7.60;;
18973;SDS011;9621;48.690;9.466;2023-10-19T13:35:41;9.52;;;8.02;;
18973;SDS011;9621;48.690;9.466;2023-10-19T13:38:09;11.43;;;8.07;;
18973;SDS011;9621;48.690;9.466;2023-10-19T13:40:37;9.15;;;7.25;;
18973;SDS011;9621;48.690;9.466;2023-10-19T13:43:06;10.80;;;7.43;;
18973;SDS011;9621;48.690;9.466;2023-10-19T13:45:34;8.73;;;6.93;;
18973;SDS011;9621;48.690;9.466;2023-10-19T13:48:04;7.90;;;6.60;;
18973;SDS011;9621;48.690;9.466;2023-10-19T13:50:32;9.43;;;7.53;;
18973;SDS011;9621;48.690;9.466;2023-10-19T13:53:00;12.27;;;7.05;;
18973;SDS011;9621;48.690;9.466;2023-10-19T13:55:29;10.13;;;7.15;;
18973;SDS011;9621;48.690;9.466;2023-10-19T13:57:58;8.88;;;6.68;;
18973;SDS011;9621;48.690;9.466;2023-10-19T14:00:28;9.98;;;7.25;;
18973;SDS011;9621;48.690;9.466;2023-10-19T14:03:00;9.40;;;7.05;;
18973;SDS011;9621;48.690;9.466;2023-10-19T14:05:29;9.85;;;7.10;;
18973;SDS011;9621;48.690;9.466;2023-10-19T14:08:01;12.52;;;7.15;;
18973;SDS011;9621;48.690;9.466;2023-10-19T14:10:29;8.45;;;7.10;;
18973;SDS011;9621;48.690;9.466;2023-10-19T14:12:56;8.95;;;6.40;;
18973;SDS011;9621;48.690;9.466;2023-10-19T14:15:23;7.90;;;5.80;;
18973;SDS011;9621;48.690;9.466;2023-10-19T14:17:52;8.13;;;5.60;;
18973;SDS011;9621;48.690;9.466;2023-10-19T14:20:19;8.27;;;5.60;;
18973;SDS011;9621;48.690;9.466;2023-10-19T14:22:48;6.85;;;5.50;;
18973;SDS011;9621;48.690;9.466;2023-10-19T14:25:18;7.15;;;5.85;;
18973;SDS011;9621;48.690;9.466;2023-10-19T14:27:47;9.25;;;6.38;;
18973;SDS011;9621;48.690;9.466;2023-10-19T14:30:15;10.68;;;6.75;;
18973;SDS011;9621;48.690;9.466;2023-10-19T14:32:44;8.80;;;6.30;;
18973;SDS011;9621;48.690;9.466;2023-10-19T14:35:14;12.30;;;6.32;;
18973;SDS011;9621;48.690;9.466;2023-10-19T14:37:42;10.45;;;7.50;;
18973;SDS011;9621;48.690;9.466;2023-10-19T14:40:10;8.35;;;6.25;;
18973;SDS011;9621;48.690;9.466;2023-10-19T14:42:39;12.05;;;9.50;;
18973;SDS011;9621;48.690;9.466;2023-10-19T14:45:08;19.00;;;17.42;;
18973;SDS011;9621;48.690;9.466;2023-10-19T14:47:36;15.35;;;13.88;;
18973;SDS011;9621;48.690;9.466;2023-10-19T14:50:06;10.23;;;7.82;;
18973;SDS011;9621;48.690;9.466;2023-10-19T14:52:40;9.57;;;7.43;;
18973;SDS011;9621;48.690;9.466;2023-10-19T14:55:07;8.30;;;6.90;;
18973;SDS011;9621;48.690;9.466;2023-10-19T14:57:35;8.23;;;6.75;;
18973;SDS011;9621;48.690;9.466;2023-10-19T15:00:04;12.55;;;9.63;;
18973;SDS011;9621;48.690;9.466;2023-10-19T15:02:40;13.63;;;10.45;;
18973;SDS011;9621;48.690;9.466;2023-10-19T15:05:07;15.95;;;11.38;;
18973;SDS011;9621;48.690;9.466;2023-10-19T15:07:39;14.27;;;10.38;;
18973;SDS011;9621;48.690;9.466;2023-10-19T15:10:09;12.07;;;9.38;;
18973;SDS011;9621;48.690;9.466;2023-10-19T15:12:37;8.23;;;7.07;;
18973;SDS011;9621;48.690;9.466;2023-10-19T15:15:05;9.57;;;7.05;;